createdAt,value
2022-08-21T16:03:01.000Z,1008.842424
2022-08-21T16:03:31.000Z,1008.842424
2022-08-21T16:04:01.000Z,1008.63924
2022-08-21T16:04:36.000Z,1008.63924
2022-08-21T16:05:06.000Z,1008.537648
2022-08-21T16:05:42.000Z,1008.537648
2022-08-21T16:06:11.000Z,1008.63924
2022-08-21T16:06:41.000Z,1008.63924
2022-08-21T16:07:17.000Z,1008.7408320000001
2022-08-21T16:07:46.000Z,1008.7408320000001
2022-08-21T16:08:19.000Z,1008.7408320000001
2022-08-21T16:08:44.000Z,1008.7408320000001
2022-08-21T16:09:04.000Z,1008.7408320000001
2022-08-21T16:09:27.000Z,1008.7408320000001
2022-08-21T16:09:48.000Z,1008.944016
2022-08-21T16:10:11.000Z,1008.944016
2022-08-21T16:10:42.000Z,1008.944016
2022-08-21T16:11:16.000Z,1008.842424
2022-08-21T16:11:46.000Z,1009.045608
2022-08-21T16:12:19.000Z,1009.045608
2022-08-21T16:12:44.000Z,1008.944016
2022-08-21T16:13:06.000Z,1008.944016
2022-08-21T16:13:41.000Z,1008.944016
2022-08-21T16:14:12.000Z,1008.63924
2022-08-21T16:14:41.000Z,1008.63924
2022-08-21T16:15:17.000Z,1008.944016
2022-08-21T16:15:46.000Z,1008.944016
2022-08-21T16:16:19.000Z,1008.944016
2022-08-21T16:16:44.000Z,1008.842424
2022-08-21T16:17:07.000Z,1008.842424
2022-08-21T16:17:41.000Z,1008.842424
2022-08-21T16:18:11.000Z,1008.944016
2022-08-21T16:18:41.000Z,1008.944016
2022-08-21T16:19:17.000Z,1008.842424
2022-08-21T16:19:46.000Z,1008.7408320000001
2022-08-21T16:20:29.000Z,1008.7408320000001
2022-08-21T16:20:52.000Z,1008.7408320000001
2022-08-21T16:21:21.000Z,1008.7408320000001
2022-08-21T16:21:48.000Z,1008.7408320000001
2022-08-21T16:22:11.000Z,1008.7408320000001
2022-08-21T16:22:41.000Z,1008.7408320000001
2022-08-21T16:23:17.000Z,1008.63924
2022-08-21T16:23:47.000Z,1008.537648
2022-08-21T16:24:22.000Z,1008.537648
2022-08-21T16:24:44.000Z,1008.63924
2022-08-21T16:25:06.000Z,1008.63924
2022-08-21T16:25:41.000Z,1008.63924
2022-08-21T16:26:11.000Z,1008.842424
2022-08-21T16:26:42.000Z,1008.842424
2022-08-21T16:27:17.000Z,1008.7408320000001
2022-08-21T16:27:47.000Z,1008.63924
2022-08-21T16:28:16.000Z,1008.63924
2022-08-21T16:28:36.000Z,1008.63924
2022-08-21T16:29:07.000Z,1008.842424
2022-08-21T16:29:42.000Z,1008.842424
2022-08-21T16:30:11.000Z,1008.842424
2022-08-21T16:30:41.000Z,1008.842424
2022-08-21T16:31:16.000Z,1008.944016
2022-08-21T16:31:46.000Z,1008.842424
2022-08-21T16:32:21.000Z,1008.842424
2022-08-21T16:32:44.000Z,1008.63924
2022-08-21T16:33:06.000Z,1008.63924
2022-08-21T16:33:42.000Z,1008.63924
2022-08-21T16:34:11.000Z,1008.842424
2022-08-21T16:34:41.000Z,1008.842424
2022-08-21T16:35:17.000Z,1008.7408320000001
2022-08-21T16:35:46.000Z,1008.436056
2022-08-21T16:36:19.000Z,1008.436056
2022-08-21T16:36:44.000Z,1008.63924
2022-08-21T16:37:06.000Z,1008.63924
2022-08-21T16:37:42.000Z,1008.63924
2022-08-21T16:38:11.000Z,1008.63924
2022-08-21T16:38:41.000Z,1008.63924
2022-08-21T16:39:16.000Z,1008.7408320000001
2022-08-21T16:39:47.000Z,1008.842424
2022-08-21T16:40:19.000Z,1008.842424
2022-08-21T16:40:44.000Z,1008.63924
2022-08-21T16:41:06.000Z,1008.63924
2022-08-21T16:41:41.000Z,1008.63924
2022-08-21T16:42:12.000Z,1008.63924
2022-08-21T16:42:41.000Z,1008.63924
2022-08-21T16:43:17.000Z,1008.63924
2022-08-21T16:43:56.000Z,1008.7408320000001
2022-08-21T16:44:21.000Z,1008.7408320000001
2022-08-21T16:44:46.000Z,1008.63924
2022-08-21T16:45:16.000Z,1008.63924
2022-08-21T16:45:42.000Z,1008.63924
2022-08-21T16:46:08.000Z,1008.7408320000001
2022-08-21T16:46:36.000Z,1008.7408320000001
2022-08-21T16:47:03.000Z,1008.842424
2022-08-21T16:47:29.000Z,1008.842424
2022-08-21T16:47:56.000Z,1008.63924
2022-08-21T16:48:21.000Z,1008.63924
2022-08-21T16:48:46.000Z,1008.7408320000001
2022-08-21T16:49:09.000Z,1008.7408320000001
2022-08-21T16:49:46.000Z,1008.537648
2022-08-21T16:50:11.000Z,1008.537648
2022-08-21T16:50:51.000Z,1008.537648
2022-08-21T16:51:26.000Z,1008.842424
2022-08-21T16:51:47.000Z,1008.436056
2022-08-21T16:52:17.000Z,1008.436056
2022-08-21T16:52:44.000Z,1008.537648
2022-08-21T16:53:06.000Z,1008.537648
2022-08-21T16:53:42.000Z,1008.537648
2022-08-21T16:54:11.000Z,1008.63924
2022-08-21T16:54:41.000Z,1008.63924
2022-08-21T16:55:17.000Z,1008.63924
2022-08-21T16:55:46.000Z,1008.7408320000001
2022-08-21T16:56:19.000Z,1008.7408320000001
2022-08-21T16:56:44.000Z,1008.7408320000001
2022-08-21T16:57:04.000Z,1008.7408320000001
2022-08-21T16:57:27.000Z,1008.7408320000001
2022-08-21T16:57:48.000Z,1008.63924
2022-08-21T16:58:12.000Z,1008.63924
2022-08-21T16:58:41.000Z,1008.63924
2022-08-21T16:59:16.000Z,1008.7408320000001
2022-08-21T16:59:46.000Z,1008.842424
2022-08-21T17:00:19.000Z,1008.842424
2022-08-21T17:00:44.000Z,1008.63924
2022-08-21T17:01:07.000Z,1008.63924
2022-08-21T17:01:41.000Z,1008.63924
2022-08-21T17:02:12.000Z,1008.7408320000001
2022-08-21T17:02:51.000Z,1008.7408320000001
2022-08-21T17:03:16.000Z,1008.7408320000001
2022-08-21T17:03:46.000Z,1008.63924
2022-08-21T17:04:19.000Z,1008.63924
2022-08-21T17:04:44.000Z,1008.842424
2022-08-21T17:05:06.000Z,1008.842424
2022-08-21T17:05:41.000Z,1008.842424
2022-08-21T17:06:11.000Z,1008.537648
2022-08-21T17:06:41.000Z,1008.537648
2022-08-21T17:07:16.000Z,1008.63924
2022-08-21T17:07:46.000Z,1008.7408320000001
2022-08-21T17:08:19.000Z,1008.7408320000001
2022-08-21T17:08:44.000Z,1008.63924
2022-08-21T17:09:06.000Z,1008.63924
2022-08-21T17:09:42.000Z,1008.63924
2022-08-21T17:10:12.000Z,1008.63924
2022-08-21T17:10:42.000Z,1008.63924
2022-08-21T17:11:17.000Z,1008.63924
2022-08-21T17:11:46.000Z,1008.63924
2022-08-21T17:12:19.000Z,1008.63924
2022-08-21T17:12:44.000Z,1008.7408320000001
2022-08-21T17:13:06.000Z,1008.7408320000001
2022-08-21T17:13:42.000Z,1008.7408320000001
2022-08-21T17:14:11.000Z,1008.7408320000001
2022-08-21T17:14:46.000Z,1008.7408320000001
2022-08-21T17:15:16.000Z,1008.7408320000001
2022-08-21T17:15:46.000Z,1008.63924
2022-08-21T17:16:17.000Z,1008.63924
2022-08-21T17:16:37.000Z,1008.63924
2022-08-21T17:17:06.000Z,1008.842424
2022-08-21T17:17:41.000Z,1008.842424
2022-08-21T17:18:11.000Z,1008.63924
2022-08-21T17:18:42.000Z,1008.63924
2022-08-21T17:19:16.000Z,1008.7408320000001
2022-08-21T17:19:46.000Z,1008.63924
2022-08-21T17:20:19.000Z,1008.63924
2022-08-21T17:20:44.000Z,1008.7408320000001
2022-08-21T17:21:06.000Z,1008.7408320000001
2022-08-21T17:21:36.000Z,1008.7408320000001
2022-08-21T17:21:53.000Z,1008.842424
2022-08-21T17:22:11.000Z,1008.842424
2022-08-21T17:22:42.000Z,1008.842424
2022-08-21T17:23:17.000Z,1008.63924
2022-08-21T17:23:46.000Z,1008.7408320000001
2022-08-21T17:24:19.000Z,1008.7408320000001
2022-08-21T17:24:44.000Z,1008.7408320000001
2022-08-21T17:25:06.000Z,1008.7408320000001
2022-08-21T17:25:42.000Z,1008.7408320000001
2022-08-21T17:26:21.000Z,1008.63924
2022-08-21T17:26:51.000Z,1008.7408320000001
2022-08-21T17:27:16.000Z,1008.7408320000001
2022-08-21T17:27:44.000Z,1008.63924
2022-08-21T17:28:11.000Z,1008.63924
2022-08-21T17:28:38.000Z,1008.63924
2022-08-21T17:29:04.000Z,1008.537648
2022-08-21T17:29:29.000Z,1008.537648
2022-08-21T17:29:56.000Z,1008.842424
2022-08-21T17:30:24.000Z,1008.842424
2022-08-21T17:30:51.000Z,1008.944016
2022-08-21T17:31:16.000Z,1008.944016
2022-08-21T17:31:44.000Z,1008.7408320000001
2022-08-21T17:32:11.000Z,1008.7408320000001
2022-08-21T17:32:36.000Z,1008.7408320000001
2022-08-21T17:33:06.000Z,1008.7408320000001
2022-08-21T17:33:42.000Z,1008.7408320000001
2022-08-21T17:34:12.000Z,1008.842424
2022-08-21T17:34:41.000Z,1008.842424
2022-08-21T17:35:16.000Z,1008.7408320000001
2022-08-21T17:35:46.000Z,1008.63924
2022-08-21T17:36:19.000Z,1008.63924
2022-08-21T17:36:44.000Z,1008.7408320000001
2022-08-21T17:37:06.000Z,1008.7408320000001
2022-08-21T17:37:36.000Z,1008.7408320000001
2022-08-21T17:38:12.000Z,1008.842424
2022-08-21T17:38:41.000Z,1008.842424
2022-08-21T17:39:16.000Z,1008.842424
2022-08-21T17:39:46.000Z,1008.7408320000001
2022-08-21T17:40:17.000Z,1008.7408320000001
2022-08-21T17:40:44.000Z,1008.944016
2022-08-21T17:41:06.000Z,1008.944016
2022-08-21T17:41:36.000Z,1008.944016
2022-08-21T17:41:53.000Z,1008.842424
2022-08-21T17:42:27.000Z,1008.842424
2022-08-21T17:42:48.000Z,1009.045608
2022-08-21T17:43:16.000Z,1009.045608
2022-08-21T17:43:56.000Z,1008.842424
2022-08-21T17:44:19.000Z,1008.842424
2022-08-21T17:44:46.000Z,1008.63924
2022-08-21T17:45:10.000Z,1008.63924
2022-08-21T17:45:36.000Z,1008.63924
2022-08-21T17:46:03.000Z,1008.944016
2022-08-21T17:46:28.000Z,1008.944016
2022-08-21T17:46:51.000Z,1008.7408320000001
2022-08-21T17:47:16.000Z,1008.7408320000001
2022-08-21T17:47:46.000Z,1008.7408320000001
2022-08-21T17:48:17.000Z,1008.7408320000001
2022-08-21T17:48:37.000Z,1008.7408320000001
2022-08-21T17:49:07.000Z,1008.944016
2022-08-21T17:49:36.000Z,1008.944016
2022-08-21T17:49:53.000Z,1008.63924
2022-08-21T17:50:27.000Z,1008.63924
2022-08-21T17:50:48.000Z,1009.045608
2022-08-21T17:51:17.000Z,1009.045608
2022-08-21T17:51:47.000Z,1008.7408320000001
2022-08-21T17:52:17.000Z,1008.7408320000001
2022-08-21T17:52:36.000Z,1008.7408320000001
2022-08-21T17:53:07.000Z,1008.842424
2022-08-21T17:53:37.000Z,1008.842424
2022-08-21T17:54:11.000Z,1008.7408320000001
2022-08-21T17:54:41.000Z,1008.7408320000001
2022-08-21T17:55:17.000Z,1008.842424
2022-08-21T17:55:46.000Z,1008.842424
2022-08-21T17:56:17.000Z,1008.842424
2022-08-21T17:56:44.000Z,1008.842424
2022-08-21T17:57:07.000Z,1008.842424
2022-08-21T17:57:36.000Z,1008.842424
2022-08-21T17:57:53.000Z,1008.944016
2022-08-21T17:58:27.000Z,1008.944016
2022-08-21T17:58:51.000Z,1008.944016
2022-08-21T17:59:16.000Z,1008.944016
2022-08-21T17:59:46.000Z,1008.63924
2022-08-21T18:00:16.000Z,1008.63924
2022-08-21T18:00:37.000Z,1008.63924
2022-08-21T18:01:06.000Z,1008.842424
2022-08-21T18:01:37.000Z,1008.842424
2022-08-21T18:01:53.000Z,1008.842424
2022-08-21T18:02:12.000Z,1008.842424
2022-08-21T18:02:42.000Z,1008.842424
2022-08-21T18:03:18.000Z,1008.842424
2022-08-21T18:03:47.000Z,1008.944016
2022-08-21T18:04:17.000Z,1008.944016
2022-08-21T18:04:37.000Z,1008.944016
2022-08-21T18:05:07.000Z,1008.842424
2022-08-21T18:05:41.000Z,1008.842424
2022-08-21T18:06:12.000Z,1008.7408320000001
2022-08-21T18:06:41.000Z,1008.7408320000001
2022-08-21T18:07:16.000Z,1008.944016
2022-08-21T18:07:46.000Z,1009.045608
2022-08-21T18:08:19.000Z,1009.045608
2022-08-21T18:08:44.000Z,1008.944016
2022-08-21T18:09:06.000Z,1008.944016
2022-08-21T18:09:37.000Z,1008.944016
2022-08-21T18:10:11.000Z,1009.045608
2022-08-21T18:10:41.000Z,1009.045608
2022-08-21T18:11:12.000Z,1009.045608
2022-08-21T18:11:29.000Z,1009.045608
2022-08-21T18:12:01.000Z,1008.944016
2022-08-21T18:12:36.000Z,1008.944016
2022-08-21T18:13:07.000Z,1009.045608
2022-08-21T18:13:36.000Z,1009.045608
2022-08-21T18:13:53.000Z,1008.7408320000001
2022-08-21T18:14:27.000Z,1008.7408320000001
2022-08-21T18:14:48.000Z,1008.944016
2022-08-21T18:15:16.000Z,1008.944016
2022-08-21T18:15:46.000Z,1008.63924
2022-08-21T18:16:16.000Z,1008.63924
2022-08-21T18:16:36.000Z,1008.63924
2022-08-21T18:17:06.000Z,1008.944016
2022-08-21T18:17:36.000Z,1008.944016
2022-08-21T18:17:53.000Z,1008.842424
2022-08-21T18:18:27.000Z,1008.842424
2022-08-21T18:18:48.000Z,1008.842424
2022-08-21T18:19:17.000Z,1008.842424
2022-08-21T18:19:46.000Z,1008.944016
2022-08-21T18:20:17.000Z,1008.944016
2022-08-21T18:20:36.000Z,1008.944016
2022-08-21T18:21:06.000Z,1008.944016
2022-08-21T18:21:36.000Z,1008.944016
2022-08-21T18:22:12.000Z,1008.944016
2022-08-21T18:22:51.000Z,1009.045608
2022-08-21T18:23:16.000Z,1009.045608
2022-08-21T18:23:47.000Z,1008.842424
2022-08-21T18:24:17.000Z,1008.842424
2022-08-21T18:24:44.000Z,1008.7408320000001
2022-08-21T18:25:06.000Z,1008.7408320000001
2022-08-21T18:25:36.000Z,1008.7408320000001
2022-08-21T18:26:11.000Z,1008.944016
2022-08-21T18:26:41.000Z,1008.944016
2022-08-21T18:27:17.000Z,1008.842424
2022-08-21T18:27:46.000Z,1008.944016
2022-08-21T18:28:16.000Z,1008.944016
2022-08-21T18:28:44.000Z,1009.113336
2022-08-21T18:29:06.000Z,1009.113336
2022-08-21T18:29:36.000Z,1009.113336
2022-08-21T18:30:12.000Z,1008.842424
2022-08-21T18:30:41.000Z,1008.842424
2022-08-21T18:31:16.000Z,1008.944016
2022-08-21T18:31:46.000Z,1008.842424
2022-08-21T18:32:17.000Z,1008.842424
2022-08-21T18:32:44.000Z,1009.045608
2022-08-21T18:33:06.000Z,1009.045608
2022-08-21T18:33:36.000Z,1009.045608
2022-08-21T18:34:12.000Z,1009.214928
2022-08-21T18:34:51.000Z,1008.944016
2022-08-21T18:35:16.000Z,1008.944016
2022-08-21T18:35:46.000Z,1009.045608
2022-08-21T18:36:16.000Z,1009.045608
2022-08-21T18:36:44.000Z,1008.944016
2022-08-21T18:37:06.000Z,1008.944016
2022-08-21T18:37:36.000Z,1008.944016
2022-08-21T18:37:53.000Z,1009.045608
2022-08-21T18:38:27.000Z,1009.045608
2022-08-21T18:38:48.000Z,1009.045608
2022-08-21T18:39:16.000Z,1009.045608
2022-08-21T18:39:46.000Z,1009.045608
2022-08-21T18:40:16.000Z,1009.045608
2022-08-21T18:40:36.000Z,1009.045608
2022-08-21T18:41:06.000Z,1008.944016
2022-08-21T18:41:36.000Z,1008.944016
2022-08-21T18:41:53.000Z,1008.944016
2022-08-21T18:42:27.000Z,1008.944016
2022-08-21T18:42:48.000Z,1008.842424
2022-08-21T18:43:16.000Z,1008.842424
2022-08-21T18:43:47.000Z,1008.842424
2022-08-21T18:44:17.000Z,1008.842424
2022-08-21T18:44:44.000Z,1008.7408320000001
2022-08-21T18:45:06.000Z,1008.7408320000001
2022-08-21T18:45:36.000Z,1008.7408320000001
2022-08-21T18:46:11.000Z,1008.944016
2022-08-21T18:46:40.000Z,1008.944016
2022-08-21T18:47:01.000Z,1008.842424
2022-08-21T18:47:31.000Z,1008.842424
2022-08-21T18:48:02.000Z,1009.045608
2022-08-21T18:48:36.000Z,1009.045608
2022-08-21T18:49:07.000Z,1008.944016
2022-08-21T18:49:36.000Z,1008.944016
2022-08-21T18:49:53.000Z,1009.113336
2022-08-21T18:50:26.000Z,1009.113336
2022-08-21T18:50:48.000Z,1008.944016
2022-08-21T18:51:16.000Z,1008.944016
2022-08-21T18:51:46.000Z,1008.944016
2022-08-21T18:52:16.000Z,1008.944016
2022-08-21T18:52:36.000Z,1008.944016
2022-08-21T18:53:07.000Z,1008.944016
2022-08-21T18:53:37.000Z,1008.944016
2022-08-21T18:54:12.000Z,1008.944016
2022-08-21T18:54:41.000Z,1008.944016
2022-08-21T18:55:16.000Z,1008.842424
2022-08-21T18:55:46.000Z,1008.842424
2022-08-21T18:56:16.000Z,1008.842424
2022-08-21T18:56:36.000Z,1008.842424
2022-08-21T18:57:06.000Z,1008.944016
2022-08-21T18:57:36.000Z,1008.944016
2022-08-21T18:58:21.000Z,1009.113336
2022-08-21T18:58:51.000Z,1008.944016
2022-08-21T18:59:16.000Z,1008.944016
2022-08-21T18:59:44.000Z,1009.045608
2022-08-21T19:00:11.000Z,1009.045608
2022-08-21T19:00:36.000Z,1009.045608
2022-08-21T19:01:04.000Z,1009.113336
2022-08-21T19:01:29.000Z,1009.113336
2022-08-21T19:01:56.000Z,1008.842424
2022-08-21T19:02:24.000Z,1008.842424
2022-08-21T19:02:48.000Z,1009.113336
2022-08-21T19:03:16.000Z,1009.113336
2022-08-21T19:03:46.000Z,1009.045608
2022-08-21T19:04:16.000Z,1009.045608
2022-08-21T19:04:37.000Z,1009.045608
2022-08-21T19:05:06.000Z,1009.113336
2022-08-21T19:05:36.000Z,1009.113336
2022-08-21T19:05:53.000Z,1008.944016
2022-08-21T19:06:27.000Z,1008.944016
2022-08-21T19:06:48.000Z,1008.842424
2022-08-21T19:07:16.000Z,1008.842424
2022-08-21T19:07:46.000Z,1009.045608
2022-08-21T19:08:16.000Z,1009.045608
2022-08-21T19:08:36.000Z,1009.045608
2022-08-21T19:09:07.000Z,1009.045608
2022-08-21T19:09:36.000Z,1009.045608
2022-08-21T19:09:36.000Z,1009.045608
2022-08-21T19:09:53.000Z,1009.045608
2022-08-21T19:09:53.000Z,1009.045608
2022-08-21T19:10:11.000Z,1009.045608
2022-08-21T19:10:11.000Z,1009.045608
2022-08-21T19:10:41.000Z,1009.045608
2022-08-21T19:10:41.000Z,1009.045608
2022-08-21T19:11:16.000Z,1009.113336
2022-08-21T19:11:16.000Z,1009.113336
2022-08-21T19:11:46.000Z,1008.944016
2022-08-21T19:12:16.000Z,1008.944016
2022-08-21T19:12:36.000Z,1008.944016
2022-08-21T19:13:06.000Z,1009.045608
2022-08-21T19:13:36.000Z,1009.045608
2022-08-21T19:13:56.000Z,1009.113336
2022-08-21T19:14:24.000Z,1009.113336
2022-08-21T19:14:51.000Z,1009.31652
2022-08-21T19:15:16.000Z,1009.31652
2022-08-21T19:15:44.000Z,1009.113336
2022-08-21T19:16:11.000Z,1009.113336
2022-08-21T19:16:36.000Z,1009.113336
2022-08-21T19:16:36.000Z,1009.113336
2022-08-21T19:17:04.000Z,1009.214928
2022-08-21T19:17:04.000Z,1009.214928
2022-08-21T19:17:36.000Z,1009.214928
2022-08-21T19:17:36.000Z,1009.214928
2022-08-21T19:17:56.000Z,1009.214928
2022-08-21T19:17:56.000Z,1009.214928
2022-08-21T19:18:24.000Z,1009.214928
2022-08-21T19:18:24.000Z,1009.214928
2022-08-21T19:18:46.000Z,1009.214928
2022-08-21T19:19:16.000Z,1009.214928
2022-08-21T19:19:56.000Z,1009.214928
2022-08-21T19:20:19.000Z,1009.214928
2022-08-21T19:20:46.000Z,1009.214928
2022-08-21T19:21:09.000Z,1009.214928
2022-08-21T19:21:36.000Z,1009.214928
2022-08-21T19:22:11.000Z,1009.214928
2022-08-21T19:22:41.000Z,1009.214928
2022-08-21T19:23:16.000Z,1009.045608
2022-08-21T19:23:46.000Z,1009.113336
2022-08-21T19:24:16.000Z,1009.113336
2022-08-21T19:24:44.000Z,1009.113336
2022-08-21T19:25:06.000Z,1009.113336
2022-08-21T19:25:36.000Z,1009.113336
2022-08-21T19:26:11.000Z,1009.113336
2022-08-21T19:26:41.000Z,1009.113336
2022-08-21T19:27:16.000Z,1009.045608
2022-08-21T19:27:46.000Z,1009.045608
2022-08-21T19:28:16.000Z,1009.045608
2022-08-21T19:28:44.000Z,1009.045608
2022-08-21T19:29:06.000Z,1009.045608
2022-08-21T19:29:36.000Z,1009.045608
2022-08-21T19:30:12.000Z,1009.045608
2022-08-21T19:30:41.000Z,1009.045608
2022-08-21T19:31:16.000Z,1009.113336
2022-08-21T19:31:46.000Z,1009.045608
2022-08-21T19:32:16.000Z,1009.045608
2022-08-21T19:32:44.000Z,1009.045608
2022-08-21T19:33:04.000Z,1009.045608
2022-08-21T19:33:29.000Z,1009.045608
2022-08-21T19:33:53.000Z,1009.113336
2022-08-21T19:34:26.000Z,1009.113336
2022-08-21T19:34:48.000Z,1009.31652
2022-08-21T19:35:16.000Z,1009.31652
2022-08-21T19:35:46.000Z,1009.045608
2022-08-21T19:36:17.000Z,1009.045608
2022-08-21T19:36:44.000Z,1009.045608
2022-08-21T19:37:07.000Z,1009.045608
2022-08-21T19:37:36.000Z,1009.045608
2022-08-21T19:38:11.000Z,1009.31652
2022-08-21T19:38:42.000Z,1009.31652
2022-08-21T19:39:16.000Z,1009.214928
2022-08-21T19:39:46.000Z,1009.045608
2022-08-21T19:40:16.000Z,1009.045608
2022-08-21T19:40:44.000Z,1009.045608
2022-08-21T19:41:07.000Z,1009.045608
2022-08-21T19:41:36.000Z,1009.045608
2022-08-21T19:42:11.000Z,1008.944016
2022-08-21T19:42:41.000Z,1008.944016
2022-08-21T19:43:16.000Z,1009.214928
2022-08-21T19:43:46.000Z,1009.045608
2022-08-21T19:44:16.000Z,1009.045608
2022-08-21T19:44:37.000Z,1009.045608
2022-08-21T19:45:08.000Z,1009.113336
2022-08-21T19:45:41.000Z,1009.113336
2022-08-21T19:46:11.000Z,1009.113336
2022-08-21T19:46:42.000Z,1009.113336
2022-08-21T19:47:16.000Z,1009.214928
2022-08-21T19:47:46.000Z,1009.113336
2022-08-21T19:48:16.000Z,1009.113336
2022-08-21T19:48:44.000Z,1009.31652
2022-08-21T19:49:06.000Z,1009.31652
2022-08-21T19:49:37.000Z,1009.31652
2022-08-21T19:50:11.000Z,1009.113336
2022-08-21T19:50:41.000Z,1009.113336
2022-08-21T19:51:16.000Z,1009.113336
2022-08-21T19:51:46.000Z,1009.214928
2022-08-21T19:52:16.000Z,1009.214928
2022-08-21T19:52:36.000Z,1009.214928
2022-08-21T19:53:06.000Z,1009.31652
2022-08-21T19:53:36.000Z,1009.31652
2022-08-21T19:53:53.000Z,1009.214928
2022-08-21T19:54:27.000Z,1009.214928
2022-08-21T19:54:48.000Z,1009.214928
2022-08-21T19:55:16.000Z,1009.214928
2022-08-21T19:55:46.000Z,1009.519704
2022-08-21T19:56:16.000Z,1009.519704
2022-08-21T19:56:36.000Z,1009.519704
2022-08-21T19:57:08.000Z,1009.418112
2022-08-21T19:57:41.000Z,1009.418112
2022-08-21T19:58:11.000Z,1009.214928
2022-08-21T19:58:41.000Z,1009.214928
2022-08-21T19:59:17.000Z,1009.113336
2022-08-21T19:59:46.000Z,1009.31652
2022-08-21T20:00:16.000Z,1009.31652
2022-08-21T20:00:43.000Z,1009.31652
2022-08-21T20:01:06.000Z,1009.31652
2022-08-21T20:01:36.000Z,1009.31652
2022-08-21T20:01:53.000Z,1009.31652
2022-08-21T20:02:27.000Z,1009.31652
2022-08-21T20:02:48.000Z,1009.31652
2022-08-21T20:03:16.000Z,1009.31652
2022-08-21T20:03:47.000Z,1009.214928
2022-08-21T20:04:16.000Z,1009.214928
2022-08-21T20:04:36.000Z,1009.214928
2022-08-21T20:05:06.000Z,1009.31652
2022-08-21T20:05:36.000Z,1009.31652
2022-08-21T20:05:53.000Z,1009.113336
2022-08-21T20:06:27.000Z,1009.113336
2022-08-21T20:06:48.000Z,1009.519704
2022-08-21T20:07:16.000Z,1009.519704
2022-08-21T20:07:46.000Z,1009.418112
2022-08-21T20:08:16.000Z,1009.418112
2022-08-21T20:08:46.000Z,1009.418112
2022-08-21T20:09:09.000Z,1009.418112
2022-08-21T20:09:36.000Z,1009.418112
2022-08-21T20:10:02.000Z,1009.31652
2022-08-21T20:10:27.000Z,1009.31652
2022-08-21T20:10:51.000Z,1009.418112
2022-08-21T20:11:16.000Z,1009.418112
2022-08-21T20:11:44.000Z,1009.418112
2022-08-21T20:12:00.000Z,1009.418112
2022-08-21T20:12:16.000Z,1009.418112
2022-08-21T20:12:36.000Z,1009.418112
2022-08-21T20:13:06.000Z,1009.418112
2022-08-21T20:13:36.000Z,1009.418112
2022-08-21T20:13:53.000Z,1009.519704
2022-08-21T20:14:27.000Z,1009.519704
2022-08-21T20:14:48.000Z,1009.113336
2022-08-21T20:15:16.000Z,1009.113336
2022-08-21T20:15:46.000Z,1009.418112
2022-08-21T20:16:16.000Z,1009.418112
2022-08-21T20:16:36.000Z,1009.418112
2022-08-21T20:17:06.000Z,1009.418112
2022-08-21T20:17:37.000Z,1009.418112
2022-08-21T20:18:12.000Z,1009.418112
2022-08-21T20:18:41.000Z,1009.418112
2022-08-21T20:19:16.000Z,1009.418112
2022-08-21T20:19:46.000Z,1009.418112
2022-08-21T20:20:16.000Z,1009.418112
2022-08-21T20:20:44.000Z,1009.418112
2022-08-21T20:21:07.000Z,1009.418112
2022-08-21T20:21:36.000Z,1009.418112
2022-08-21T20:22:11.000Z,1009.519704
2022-08-21T20:22:41.000Z,1009.519704
2022-08-21T20:23:26.000Z,1009.519704
2022-08-21T20:23:56.000Z,1009.418112
2022-08-21T20:24:17.000Z,1009.418112
2022-08-21T20:24:44.000Z,1009.519704
2022-08-21T20:25:07.000Z,1009.519704
2022-08-21T20:25:36.000Z,1009.519704
2022-08-21T20:26:11.000Z,1009.621296
2022-08-21T20:26:41.000Z,1009.621296
2022-08-21T20:27:16.000Z,1009.31652
2022-08-21T20:27:46.000Z,1009.31652
2022-08-21T20:28:16.000Z,1009.31652
2022-08-21T20:28:52.000Z,1009.418112
2022-08-21T20:29:21.000Z,1009.418112
2022-08-21T20:29:46.000Z,1009.418112
2022-08-21T20:30:11.000Z,1009.418112
2022-08-21T20:30:41.000Z,1009.418112
2022-08-21T20:31:17.000Z,1009.31652
2022-08-21T20:31:46.000Z,1009.519704
2022-08-21T20:32:16.000Z,1009.519704
2022-08-21T20:32:44.000Z,1009.519704
2022-08-21T20:33:06.000Z,1009.519704
2022-08-21T20:33:36.000Z,1009.519704
2022-08-21T20:34:12.000Z,1009.214928
2022-08-21T20:34:41.000Z,1009.214928
2022-08-21T20:35:18.000Z,1009.31652
2022-08-21T20:35:46.000Z,1009.418112
2022-08-21T20:36:17.000Z,1009.418112
2022-08-21T20:36:44.000Z,1009.418112
2022-08-21T20:37:07.000Z,1009.418112
2022-08-21T20:37:36.000Z,1009.418112
2022-08-21T20:38:12.000Z,1009.113336
2022-08-21T20:38:41.000Z,1009.113336
2022-08-21T20:39:16.000Z,1009.418112
2022-08-21T20:39:47.000Z,1009.519704
2022-08-21T20:40:17.000Z,1009.519704
2022-08-21T20:40:44.000Z,1009.214928
2022-08-21T20:41:07.000Z,1009.214928
2022-08-21T20:41:36.000Z,1009.214928
2022-08-21T20:42:12.000Z,1009.418112
2022-08-21T20:42:42.000Z,1009.418112
2022-08-21T20:43:16.000Z,1009.31652
2022-08-21T20:43:46.000Z,1009.31652
2022-08-21T20:44:17.000Z,1009.31652
2022-08-21T20:44:44.000Z,1009.519704
2022-08-21T20:45:06.000Z,1009.519704
2022-08-21T20:45:37.000Z,1009.519704
2022-08-21T20:46:12.000Z,1009.418112
2022-08-21T20:46:41.000Z,1009.418112
2022-08-21T20:47:26.000Z,1009.31652
2022-08-21T20:47:56.000Z,1009.31652
2022-08-21T20:48:19.000Z,1009.31652
2022-08-21T20:48:44.000Z,1009.418112
2022-08-21T20:49:07.000Z,1009.418112
2022-08-21T20:49:36.000Z,1009.418112
2022-08-21T20:50:11.000Z,1009.418112
2022-08-21T20:50:42.000Z,1009.418112
2022-08-21T20:51:16.000Z,1009.418112
2022-08-21T20:51:46.000Z,1009.418112
2022-08-21T20:52:16.000Z,1009.418112
2022-08-21T20:52:44.000Z,1009.418112
2022-08-21T20:53:06.000Z,1009.418112
2022-08-21T20:53:36.000Z,1009.418112
2022-08-21T20:54:11.000Z,1009.519704
2022-08-21T20:54:41.000Z,1009.519704
2022-08-21T20:55:17.000Z,1009.31652
2022-08-21T20:55:46.000Z,1009.31652
2022-08-21T20:56:17.000Z,1009.31652
2022-08-21T20:56:44.000Z,1009.214928
2022-08-21T20:57:06.000Z,1009.214928
2022-08-21T20:57:37.000Z,1009.214928
2022-08-21T20:58:11.000Z,1009.31652
2022-08-21T20:58:41.000Z,1009.31652
2022-08-21T20:59:16.000Z,1009.31652
2022-08-21T20:59:47.000Z,1009.418112
2022-08-21T21:00:16.000Z,1009.418112
2022-08-21T21:00:44.000Z,1009.214928
2022-08-21T21:01:07.000Z,1009.214928
2022-08-21T21:01:36.000Z,1009.214928
2022-08-21T21:02:12.000Z,1009.519704